Time;durP1;ratioP1;P1;durP2;ratioP2;P2;SDS_P1;SDS_P2;PMS_P1;PMS_P2;Temp;Humidity;BMP_temperature;BMP_pressure;BME280_temperature;BME280_humidity;BME280_pressure;Samples;Min_cycle;Max_cycle;Signal;HPM_P1;HPM_P2
2021/08/02 00:01:14;;;;;;;5.30;4.10;;;;;;;;;;5093233;28;20471;-74
2021/08/02 00:03:47;;;;;;;7.30;4.70;;;;;;;;;;5092884;28;20446;-74
2021/08/02 00:06:17;;;;;;;4.63;4.00;;;;;;;;;;5093538;28;20922;-75
2021/08/02 00:08:45;;;;;;;4.63;4.20;;;;;;;;;;5093310;28;20431;-75
2021/08/02 00:11:14;;;;;;;7.80;4.00;;;;;;;;;;5092994;28;20443;-74
2021/08/02 00:13:42;;;;;;;9.47;4.70;;;;;;;;;;5093937;28;20531;-74
2021/08/02 00:16:10;;;;;;;6.73;4.37;;;;;;;;;;5093789;28;20432;-74
2021/08/02 00:18:37;;;;;;;6.83;5.07;;;;;;;;;;5093680;28;20468;-74
2021/08/02 00:21:06;;;;;;;6.50;4.83;;;;;;;;;;5093530;28;20476;-74
2021/08/02 00:23:34;;;;;;;7.87;5.00;;;;;;;;;;5093298;28;20543;-75
2021/08/02 00:26:02;;;;;;;9.40;5.30;;;;;;;;;;5095680;28;20458;-75
2021/08/02 00:28:30;;;;;;;7.13;5.30;;;;;;;;;;5096705;28;20475;-75
2021/08/02 00:30:57;;;;;;;8.63;5.40;;;;;;;;;;5096696;28;20439;-75
2021/08/02 00:33:26;;;;;;;9.43;5.10;;;;;;;;;;5096345;28;20440;-74
2021/08/02 00:35:55;;;;;;;5.77;5.30;;;;;;;;;;5096625;28;20488;-74
2021/08/02 00:38:24;;;;;;;12.57;5.13;;;;;;;;;;5096621;28;20860;-74
2021/08/02 00:41:07;;;;;;;6.80;5.00;;;;;;;;;;5096488;28;20451;-74
2021/08/02 00:43:49;;;;;;;7.20;5.63;;;;;;;;;;5096355;28;20928;-73
2021/08/02 00:46:17;;;;;;;6.03;5.23;;;;;;;;;;5096160;28;20928;-74
2021/08/02 00:48:50;;;;;;;6.73;5.63;;;;;;;;;;5096503;28;20534;-73
2021/08/02 00:51:17;;;;;;;8.73;5.60;;;;;;;;;;5096333;28;20518;-73
2021/08/02 00:53:48;;;;;;;9.30;5.03;;;;;;;;;;5096580;28;20447;-73
2021/08/02 00:56:15;;;;;;;7.80;6.10;;;;;;;;;;5096484;28;20424;-73
2021/08/02 00:58:44;;;;;;;6.83;6.13;;;;;;;;;;5096437;28;20454;-74
2021/08/02 01:01:12;;;;;;;9.47;6.00;;;;;;;;;;5095645;28;20472;-74
2021/08/02 01:03:42;;;;;;;7.20;5.30;;;;;;;;;;5095680;28;20440;-75
2021/08/02 01:06:11;;;;;;;9.43;5.97;;;;;;;;;;5096126;28;20511;-74
2021/08/02 01:08:40;;;;;;;8.50;5.70;;;;;;;;;;5095968;28;20863;-74
2021/08/02 01:11:08;;;;;;;6.73;5.73;;;;;;;;;;5095541;28;20440;-74
2021/08/02 01:13:37;;;;;;;9.57;7.47;;;;;;;;;;5096401;28;20435;-74
2021/08/02 01:16:05;;;;;;;7.50;6.23;;;;;;;;;;5095473;28;20454;-73
2021/08/02 01:18:33;;;;;;;11.47;6.33;;;;;;;;;;5096401;28;20440;-73
2021/08/02 01:21:03;;;;;;;9.30;5.87;;;;;;;;;;5095739;28;20436;-73
2021/08/02 01:23:32;;;;;;;11.23;5.97;;;;;;;;;;5096241;28;20844;-74
2021/08/02 01:26:14;;;;;;;13.43;6.43;;;;;;;;;;5095582;28;20450;-74
2021/08/02 01:28:59;;;;;;;8.57;5.60;;;;;;;;;;5095616;28;20969;-73
2021/08/02 01:31:27;;;;;;;6.83;6.20;;;;;;;;;;5095502;28;20485;-74
2021/08/02 01:33:54;;;;;;;11.33;6.60;;;;;;;;;;5095609;28;20444;-74
2021/08/02 01:36:21;;;;;;;10.70;6.80;;;;;;;;;;5095117;28;20436;-74
2021/08/02 01:38:50;;;;;;;10.73;6.93;;;;;;;;;;5095602;28;20794;-75
2021/08/02 01:41:18;;;;;;;8.60;7.00;;;;;;;;;;5094864;28;20937;-75
2021/08/02 01:43:45;;;;;;;12.53;5.70;;;;;;;;;;5095220;28;20436;-73
2021/08/02 01:46:18;;;;;;;8.23;6.77;;;;;;;;;;5094911;28;20952;-74
2021/08/02 01:48:47;;;;;;;10.70;5.77;;;;;;;;;;5095651;28;20443;-74
2021/08/02 01:51:17;;;;;;;10.13;5.87;;;;;;;;;;5094754;28;20458;-74
2021/08/02 01:53:47;;;;;;;7.97;5.97;;;;;;;;;;5095116;28;20808;-73
2021/08/02 01:56:19;;;;;;;6.50;5.63;;;;;;;;;;5094922;28;20798;-73
2021/08/02 01:58:52;;;;;;;9.53;5.20;;;;;;;;;;5094663;28;20913;-72
2021/08/02 02:01:19;;;;;;;7.70;5.80;;;;;;;;;;5095687;28;20439;-73
2021/08/02 02:03:47;;;;;;;10.37;6.80;;;;;;;;;;5094839;28;20439;-72
2021/08/02 02:06:15;;;;;;;6.70;5.60;;;;;;;;;;5095149;28;20461;-72
2021/08/02 02:08:44;;;;;;;9.83;6.20;;;;;;;;;;5094731;28;20964;-73
2021/08/02 02:11:11;;;;;;;8.70;6.07;;;;;;;;;;5094672;28;20443;-73
2021/08/02 02:13:41;;;;;;;18.50;7.27;;;;;;;;;;5094296;28;20941;-73
2021/08/02 02:16:09;;;;;;;7.07;6.13;;;;;;;;;;5094317;28;20444;-73
2021/08/02 02:18:39;;;;;;;8.53;6.30;;;;;;;;;;5094314;28;20435;-73
2021/08/02 02:21:08;;;;;;;7.60;5.87;;;;;;;;;;5094556;28;20458;-73
2021/08/02 02:23:36;;;;;;;8.70;6.40;;;;;;;;;;5095060;28;20480;-73
2021/08/02 02:26:03;;;;;;;8.70;6.30;;;;;;;;;;5094363;28;20448;-73
2021/08/02 02:28:31;;;;;;;7.20;6.43;;;;;;;;;;5094616;28;20485;-72
2021/08/02 02:31:00;;;;;;;8.20;6.40;;;;;;;;;;5094321;28;20454;-72
2021/08/02 02:33:28;;;;;;;7.93;7.10;;;;;;;;;;5093979;28;20447;-72
2021/08/02 02:35:56;;;;;;;8.83;6.87;;;;;;;;;;5094524;28;20471;-73
2021/08/02 02:38:23;;;;;;;11.23;6.30;;;;;;;;;;5093920;28;20448;-73
2021/08/02 02:40:52;;;;;;;8.13;7.33;;;;;;;;;;5093885;28;20446;-73
2021/08/02 02:43:19;;;;;;;12.10;6.57;;;;;;;;;;5093800;28;20471;-73
2021/08/02 02:45:47;;;;;;;13.17;6.80;;;;;;;;;;5094794;28;20446;-73
2021/08/02 02:48:17;;;;;;;10.27;7.00;;;;;;;;;;5094260;28;20431;-73
2021/08/02 02:50:45;;;;;;;12.60;6.47;;;;;;;;;;5093998;28;20440;-73
2021/08/02 02:53:13;;;;;;;11.50;6.30;;;;;;;;;;5093934;28;20453;-73
2021/08/02 02:55:42;;;;;;;8.93;6.13;;;;;;;;;;5093944;28;20467;-74
2021/08/02 02:58:09;;;;;;;8.17;6.50;;;;;;;;;;5094555;28;20534;-73
2021/08/02 03:00:38;;;;;;;12.77;6.73;;;;;;;;;;5093557;28;20454;-73
2021/08/02 03:03:05;;;;;;;12.20;7.40;;;;;;;;;;5094377;28;20549;-73
2021/08/02 03:05:36;;;;;;;6.60;6.00;;;;;;;;;;5093529;28;20446;-73
2021/08/02 03:08:06;;;;;;;8.10;7.20;;;;;;;;;;5093581;28;20428;-73
2021/08/02 03:10:33;;;;;;;8.00;6.90;;;;;;;;;;5094024;28;20440;-72
2021/08/02 03:13:01;;;;;;;8.87;6.80;;;;;;;;;;5093800;28;20440;-73
2021/08/02 03:15:28;;;;;;;9.77;6.87;;;;;;;;;;5093722;28;20478;-73
2021/08/02 03:17:55;;;;;;;8.20;6.07;;;;;;;;;;5093701;28;20451;-73
2021/08/02 03:20:22;;;;;;;7.13;6.00;;;;;;;;;;5093417;28;20448;-73
2021/08/02 03:22:53;;;;;;;10.93;6.80;;;;;;;;;;5093280;28;21045;-72
2021/08/02 03:25:26;;;;;;;9.20;7.13;;;;;;;;;;5094135;28;20450;-74
2021/08/02 03:27:56;;;;;;;10.40;6.87;;;;;;;;;;5093594;28;20467;-72
2021/08/02 03:30:24;;;;;;;10.10;6.53;;;;;;;;;;5093520;28;20939;-73
2021/08/02 03:32:52;;;;;;;8.20;6.70;;;;;;;;;;5093683;28;20450;-73
2021/08/02 03:35:20;;;;;;;10.30;7.17;;;;;;;;;;5093528;28;20439;-73
2021/08/02 03:37:49;;;;;;;13.73;7.87;;;;;;;;;;5093592;28;20445;-73
2021/08/02 03:40:19;;;;;;;10.40;7.40;;;;;;;;;;5093534;28;20436;-73
2021/08/02 03:42:46;;;;;;;8.70;6.77;;;;;;;;;;5093388;28;20475;-73
2021/08/02 03:45:16;;;;;;;7.73;6.93;;;;;;;;;;5093847;28;20435;-73
2021/08/02 03:47:43;;;;;;;9.33;6.70;;;;;;;;;;5093176;28;20530;-73
2021/08/02 03:50:11;;;;;;;11.50;7.73;;;;;;;;;;5093962;28;20523;-73
2021/08/02 03:52:38;;;;;;;8.40;7.07;;;;;;;;;;5093041;28;20925;-73
2021/08/02 03:55:07;;;;;;;9.87;7.33;;;;;;;;;;5093307;28;20439;-73
2021/08/02 03:57:36;;;;;;;12.03;7.00;;;;;;;;;;5093082;28;20440;-73
2021/08/02 04:00:03;;;;;;;9.50;7.57;;;;;;;;;;5094501;28;20443;-73
2021/08/02 04:02:30;;;;;;;8.47;7.40;;;;;;;;;;5096880;28;20474;-73
2021/08/02 04:04:58;;;;;;;16.63;8.47;;;;;;;;;;5096891;28;20450;-73
2021/08/02 04:07:25;;;;;;;7.27;6.23;;;;;;;;;;5097133;28;20443;-74
2021/08/02 04:09:52;;;;;;;11.03;6.77;;;;;;;;;;5097134;28;20802;-72
2021/08/02 04:12:19;;;;;;;10.70;7.70;;;;;;;;;;5096745;28;20443;-74
2021/08/02 04:14:48;;;;;;;11.10;7.70;;;;;;;;;;5096966;28;20465;-72
2021/08/02 04:17:15;;;;;;;11.63;7.30;;;;;;;;;;5096980;28;20439;-72
2021/08/02 04:19:42;;;;;;;8.80;7.30;;;;;;;;;;5097057;28;20435;-73
2021/08/02 04:22:09;;;;;;;11.93;7.40;;;;;;;;;;5096587;28;20448;-72
2021/08/02 04:24:37;;;;;;;11.40;7.77;;;;;;;;;;5096805;28;20436;-72
2021/08/02 04:27:05;;;;;;;10.73;7.80;;;;;;;;;;5101754;28;20451;-71
2021/08/02 04:29:32;;;;;;;12.83;8.60;;;;;;;;;;5108872;28;20928;-71
2021/08/02 04:32:01;;;;;;;7.30;6.47;;;;;;;;;;5117090;28;20460;-72
2021/08/02 04:34:28;;;;;;;8.70;6.60;;;;;;;;;;5116896;28;20447;-72
2021/08/02 04:36:56;;;;;;;9.17;6.50;;;;;;;;;;5117747;28;20435;-71
2021/08/02 04:39:23;;;;;;;6.80;6.20;;;;;;;;;;5117179;28;20445;-72
2021/08/02 04:41:50;;;;;;;9.67;7.03;;;;;;;;;;5116752;28;20858;-72
2021/08/02 04:44:17;;;;;;;8.50;6.87;;;;;;;;;;5116849;28;20822;-72
2021/08/02 04:46:44;;;;;;;9.40;6.23;;;;;;;;;;5116775;28;20439;-72
2021/08/02 04:49:13;;;;;;;9.77;6.63;;;;;;;;;;5116781;27;20439;-72
2021/08/02 04:51:40;;;;;;;8.07;6.23;;;;;;;;;;5116632;28;20439;-74
2021/08/02 04:54:07;;;;;;;8.30;6.77;;;;;;;;;;5116351;28;20986;-74
2021/08/02 04:56:35;;;;;;;10.20;6.77;;;;;;;;;;5116289;28;20435;-75
2021/08/02 04:59:02;;;;;;;14.00;6.73;;;;;;;;;;5109701;28;20457;-74
2021/08/02 05:01:29;;;;;;;6.20;5.60;;;;;;;;;;5100309;28;20457;-74
2021/08/02 05:03:56;;;;;;;12.00;6.37;;;;;;;;;;5107008;28;20485;-74
2021/08/02 05:06:25;;;;;;;8.67;6.20;;;;;;;;;;5116111;28;20530;-75
2021/08/02 05:08:52;;;;;;;8.57;5.80;;;;;;;;;;5116383;28;20535;-74
2021/08/02 05:11:26;;;;;;;13.10;5.90;;;;;;;;;;5115995;28;20443;-74
2021/08/02 05:13:53;;;;;;;8.97;6.57;;;;;;;;;;5116609;28;20438;-74
2021/08/02 05:16:20;;;;;;;8.60;6.47;;;;;;;;;;5116204;28;20439;-75
2021/08/02 05:18:47;;;;;;;10.60;6.20;;;;;;;;;;5116203;28;20509;-73
2021/08/02 05:21:14;;;;;;;8.37;5.97;;;;;;;;;;5116159;28;20439;-68
2021/08/02 05:23:43;;;;;;;11.87;6.67;;;;;;;;;;5115714;27;20471;-73
2021/08/02 05:26:10;;;;;;;7.80;6.20;;;;;;;;;;5116161;28;20438;-73
2021/08/02 05:28:37;;;;;;;9.40;5.97;;;;;;;;;;5115854;28;20467;-73
2021/08/02 05:31:04;;;;;;;8.63;5.90;;;;;;;;;;5115996;28;20445;-73
2021/08/02 05:33:31;;;;;;;10.13;6.40;;;;;;;;;;5115594;28;20459;-73
2021/08/02 05:36:03;;;;;;;11.53;5.80;;;;;;;;;;5115590;27;20804;-73
2021/08/02 05:38:30;;;;;;;8.60;6.30;;;;;;;;;;5115912;28;20447;-73
2021/08/02 05:40:59;;;;;;;9.07;6.37;;;;;;;;;;5115794;28;20451;-73
2021/08/02 05:43:26;;;;;;;10.27;6.00;;;;;;;;;;5115259;28;20509;-74
2021/08/02 05:45:53;;;;;;;9.70;6.00;;;;;;;;;;5115673;28;20496;-73
2021/08/02 05:48:21;;;;;;;11.63;5.03;;;;;;;;;;5115140;27;20455;-73
2021/08/02 05:50:48;;;;;;;11.40;6.40;;;;;;;;;;5115488;28;20439;-73
2021/08/02 05:53:15;;;;;;;8.77;5.73;;;;;;;;;;5115191;28;20446;-73
2021/08/02 05:55:42;;;;;;;7.83;6.30;;;;;;;;;;5115753;28;20796;-74
2021/08/02 05:58:11;;;;;;;8.10;5.83;;;;;;;;;;5115071;28;20457;-74
2021/08/02 06:00:39;;;;;;;6.57;5.20;;;;;;;;;;5115841;28;20473;-74
2021/08/02 06:03:06;;;;;;;7.00;5.67;;;;;;;;;;5115416;28;20478;-74
2021/08/02 06:05:33;;;;;;;6.83;5.13;;;;;;;;;;5115484;28;20463;-73
2021/08/02 06:08:00;;;;;;;9.73;5.30;;;;;;;;;;5115212;28;20431;-73
2021/08/02 06:10:27;;;;;;;11.90;6.27;;;;;;;;;;5115125;28;20435;-74
2021/08/02 06:12:54;;;;;;;13.20;6.50;;;;;;;;;;5115146;28;20442;-73
2021/08/02 06:15:23;;;;;;;16.73;6.40;;;;;;;;;;5114805;28;20453;-74
2021/08/02 06:17:50;;;;;;;9.40;6.00;;;;;;;;;;5114732;28;20442;-74
2021/08/02 06:20:17;;;;;;;6.47;5.80;;;;;;;;;;5114613;28;20442;-74
2021/08/02 06:22:45;;;;;;;6.43;5.43;;;;;;;;;;5114647;28;20531;-74
2021/08/02 06:25:12;;;;;;;7.33;5.80;;;;;;;;;;5115303;28;20533;-74
2021/08/02 06:27:39;;;;;;;6.20;5.60;;;;;;;;;;5114152;28;20485;-74
2021/08/02 06:30:07;;;;;;;10.20;6.00;;;;;;;;;;5114320;28;20440;-74
2021/08/02 06:32:36;;;;;;;11.33;6.63;;;;;;;;;;5115296;28;20443;-74
2021/08/02 06:35:03;;;;;;;10.77;5.03;;;;;;;;;;5114354;28;20443;-74
2021/08/02 06:37:30;;;;;;;8.23;5.60;;;;;;;;;;5114317;28;20530;-74
2021/08/02 06:39:58;;;;;;;7.23;5.37;;;;;;;;;;5114594;28;20788;-74
2021/08/02 06:42:25;;;;;;;9.03;6.47;;;;;;;;;;5114473;28;20440;-74
2021/08/02 06:44:52;;;;;;;8.43;5.20;;;;;;;;;;5114091;28;20477;-74
2021/08/02 06:47:19;;;;;;;7.30;4.80;;;;;;;;;;5114714;28;20465;-73
2021/08/02 06:49:48;;;;;;;11.03;5.90;;;;;;;;;;5114395;28;20444;-73
2021/08/02 06:52:15;;;;;;;8.40;6.10;;;;;;;;;;5114597;28;20527;-74
2021/08/02 06:54:42;;;;;;;7.10;5.40;;;;;;;;;;5114320;28;20452;-74
2021/08/02 06:57:10;;;;;;;11.37;5.70;;;;;;;;;;5114288;28;20449;-74
2021/08/02 06:59:37;;;;;;;7.87;5.53;;;;;;;;;;5114023;28;20444;-74
2021/08/02 07:02:04;;;;;;;6.57;5.63;;;;;;;;;;5114210;28;20541;-74
2021/08/02 07:04:31;;;;;;;6.17;5.40;;;;;;;;;;5113800;28;20981;-74
2021/08/02 07:07:00;;;;;;;12.77;6.07;;;;;;;;;;5114728;28;20435;-74
2021/08/02 07:09:27;;;;;;;9.13;6.07;;;;;;;;;;5114097;28;20439;-75
2021/08/02 07:11:54;;;;;;;10.63;6.20;;;;;;;;;;5113744;28;20438;-75
2021/08/02 07:14:21;;;;;;;13.23;5.80;;;;;;;;;;5114108;28;20457;-74
2021/08/02 07:16:49;;;;;;;8.00;5.10;;;;;;;;;;5114078;28;20439;-74
2021/08/02 07:19:16;;;;;;;8.10;5.67;;;;;;;;;;5114303;28;20451;-74
2021/08/02 07:21:43;;;;;;;6.40;5.80;;;;;;;;;;5114242;28;20435;-74
2021/08/02 07:24:11;;;;;;;7.87;4.43;;;;;;;;;;5113550;28;20986;-74
2021/08/02 07:26:39;;;;;;;9.07;5.77;;;;;;;;;;5113865;28;20438;-74
2021/08/02 07:29:06;;;;;;;8.10;4.90;;;;;;;;;;5114059;28;20479;-74
2021/08/02 07:31:33;;;;;;;8.73;5.13;;;;;;;;;;5114362;28;20435;-74
2021/08/02 07:34:00;;;;;;;7.60;5.03;;;;;;;;;;5115564;28;20869;-75
2021/08/02 07:36:28;;;;;;;5.53;4.63;;;;;;;;;;5118023;28;20439;-75
2021/08/02 07:38:55;;;;;;;10.87;5.10;;;;;;;;;;5117755;28;20531;-75
2021/08/02 07:41:24;;;;;;;13.03;5.10;;;;;;;;;;5117997;28;20452;-75
2021/08/02 07:43:52;;;;;;;9.37;5.10;;;;;;;;;;5117996;28;20520;-74
2021/08/02 07:46:28;;;;;;;5.57;4.30;;;;;;;;;;5117687;28;20444;-75
2021/08/02 07:48:55;;;;;;;7.33;4.27;;;;;;;;;;5118030;28;20429;-74
2021/08/02 07:51:22;;;;;;;7.40;5.60;;;;;;;;;;5118309;28;20440;-75
2021/08/02 07:53:50;;;;;;;12.67;5.40;;;;;;;;;;5118108;28;20438;-75
2021/08/02 07:56:17;;;;;;;7.87;4.30;;;;;;;;;;5118182;28;20443;-75
2021/08/02 07:58:46;;;;;;;6.63;5.30;;;;;;;;;;5117372;28;20451;-75
2021/08/02 08:01:13;;;;;;;13.53;5.43;;;;;;;;;;5117408;28;20448;-75
2021/08/02 08:03:41;;;;;;;4.50;4.10;;;;;;;;;;5117544;28;20848;-75
2021/08/02 08:06:08;;;;;;;8.13;3.97;;;;;;;;;;5117594;28;20436;-75
2021/08/02 08:08:35;;;;;;;6.87;4.00;;;;;;;;;;5117847;28;20457;-73
2021/08/02 08:11:02;;;;;;;10.57;4.00;;;;;;;;;;5117658;28;20874;-75
2021/08/02 08:13:30;;;;;;;5.00;3.50;;;;;;;;;;5117480;28;20835;-75
2021/08/02 08:15:58;;;;;;;4.13;3.67;;;;;;;;;;5117495;28;20445;-74
2021/08/02 08:18:27;;;;;;;9.90;3.70;;;;;;;;;;5117291;28;20435;-76
2021/08/02 08:20:54;;;;;;;4.27;3.87;;;;;;;;;;5116976;28;20533;-75
2021/08/02 08:23:21;;;;;;;5.93;3.77;;;;;;;;;;5117155;28;20439;-75
2021/08/02 08:25:48;;;;;;;12.90;5.17;;;;;;;;;;5116953;28;21007;-75
2021/08/02 08:28:16;;;;;;;7.20;3.47;;;;;;;;;;5116873;28;20467;-76
2021/08/02 08:30:44;;;;;;;12.43;3.73;;;;;;;;;;5117623;28;20533;-76
2021/08/02 08:33:12;;;;;;;8.43;3.40;;;;;;;;;;5117046;28;20444;-76
2021/08/02 08:35:39;;;;;;;5.20;3.40;;;;;;;;;;5117241;28;20858;-77
2021/08/02 08:38:09;;;;;;;6.87;3.47;;;;;;;;;;5117552;28;20439;-76
2021/08/02 08:40:37;;;;;;;5.33;3.10;;;;;;;;;;5116912;28;20441;-76
2021/08/02 08:43:04;;;;;;;4.97;3.30;;;;;;;;;;5117198;28;20526;-76
2021/08/02 08:45:31;;;;;;;6.33;2.90;;;;;;;;;;5115693;28;20486;-76
2021/08/02 08:47:59;;;;;;;4.00;3.20;;;;;;;;;;5116910;28;20464;-76
2021/08/02 08:50:27;;;;;;;5.83;2.60;;;;;;;;;;5116435;28;20448;-76
2021/08/02 08:52:56;;;;;;;7.87;3.03;;;;;;;;;;5116956;28;20441;-76
2021/08/02 08:55:24;;;;;;;4.80;3.83;;;;;;;;;;5117089;28;20455;-77
2021/08/02 08:57:51;;;;;;;3.53;3.00;;;;;;;;;;5117137;28;20531;-77
2021/08/02 09:00:22;;;;;;;4.13;3.20;;;;;;;;;;5116876;28;20440;-77
2021/08/02 09:02:51;;;;;;;7.50;3.80;;;;;;;;;;5116641;28;20448;-75
2021/08/02 09:05:18;;;;;;;5.00;3.30;;;;;;;;;;5116558;28;20966;-76
2021/08/02 09:07:48;;;;;;;3.30;2.50;;;;;;;;;;5116611;28;20466;-77
2021/08/02 09:10:16;;;;;;;10.67;3.67;;;;;;;;;;5115924;28;20498;-76
2021/08/02 09:12:51;;;;;;;157.37;65.57;;;;;;;;;;5115884;28;20448;-75
2021/08/02 09:15:18;;;;;;;63.60;29.63;;;;;;;;;;5115970;27;20496;-77
2021/08/02 09:17:46;;;;;;;4.70;3.33;;;;;;;;;;5115960;28;20433;-76
2021/08/02 09:20:19;;;;;;;7.17;2.20;;;;;;;;;;5116274;28;20477;-77
2021/08/02 09:22:48;;;;;;;6.40;3.47;;;;;;;;;;5116112;28;20443;-76
2021/08/02 09:25:19;;;;;;;12.03;2.33;;;;;;;;;;5116019;28;20477;-77
2021/08/02 09:27:47;;;;;;;6.70;1.90;;;;;;;;;;5115887;28;20490;-77
2021/08/02 09:30:18;;;;;;;13.77;3.43;;;;;;;;;;5115670;28;20437;-76
2021/08/02 09:32:46;;;;;;;4.83;1.70;;;;;;;;;;5115947;28;20438;-75
2021/08/02 09:35:14;;;;;;;1.63;1.53;;;;;;;;;;5115513;28;21048;-74
2021/08/02 09:37:41;;;;;;;2.60;1.50;;;;;;;;;;5115427;28;20931;-75
2021/08/02 09:40:10;;;;;;;13.03;2.70;;;;;;;;;;5115827;28;20470;-76
2021/08/02 09:42:37;;;;;;;4.60;1.87;;;;;;;;;;5116553;28;20442;-75
2021/08/02 09:45:05;;;;;;;4.30;1.83;;;;;;;;;;5115348;28;20473;-75
2021/08/02 09:47:32;;;;;;;2.20;2.07;;;;;;;;;;5115313;28;20531;-76
2021/08/02 09:49:59;;;;;;;5.03;2.00;;;;;;;;;;5115888;28;20924;-77
2021/08/02 09:52:29;;;;;;;8.83;2.33;;;;;;;;;;5115936;28;20468;-75
2021/08/02 09:55:03;;;;;;;7.30;3.00;;;;;;;;;;5115993;28;20438;-76
2021/08/02 09:57:32;;;;;;;5.90;1.77;;;;;;;;;;5114322;28;20480;-75
2021/08/02 10:00:00;;;;;;;10.13;5.80;;;;;;;;;;5115062;28;20535;-75
2021/08/02 10:02:27;;;;;;;1.87;1.67;;;;;;;;;;5115070;28;20919;-75
2021/08/02 10:04:54;;;;;;;6.60;1.77;;;;;;;;;;5115397;28;20836;-77
2021/08/02 10:07:22;;;;;;;3.97;1.87;;;;;;;;;;5115674;28;20532;-76
2021/08/02 10:09:49;;;;;;;4.33;2.10;;;;;;;;;;5114811;28;20448;-76
2021/08/02 10:12:16;;;;;;;2.33;2.20;;;;;;;;;;5115160;28;20443;-78
2021/08/02 10:14:45;;;;;;;3.77;1.70;;;;;;;;;;5114661;28;20442;-78
2021/08/02 10:17:12;;;;;;;2.30;1.67;;;;;;;;;;5114634;28;20442;-75
2021/08/02 10:19:41;;;;;;;3.73;2.10;;;;;;;;;;5114713;28;20542;-76
2021/08/02 10:22:09;;;;;;;6.73;2.00;;;;;;;;;;5115254;28;20464;-78
2021/08/02 10:24:46;;;;;;;4.40;2.00;;;;;;;;;;5114646;28;20516;-75
2021/08/02 10:27:13;;;;;;;3.00;2.23;;;;;;;;;;5115144;28;20476;-77
2021/08/02 10:29:41;;;;;;;6.63;2.13;;;;;;;;;;5114358;28;20529;-76
2021/08/02 10:32:21;;;;;;;4.73;2.20;;;;;;;;;;5114281;28;20490;-77
2021/08/02 10:34:50;;;;;;;2.60;1.90;;;;;;;;;;5114839;28;20531;-77
2021/08/02 10:37:30;;;;;;;2.93;1.93;;;;;;;;;;5114668;28;20436;-76
2021/08/02 10:40:02;;;;;;;1.73;1.63;;;;;;;;;;5114169;28;20429;-77
2021/08/02 10:42:29;;;;;;;2.07;1.83;;;;;;;;;;5114365;28;20436;-78
2021/08/02 10:44:57;;;;;;;2.27;1.60;;;;;;;;;;5114435;28;20554;-73
2021/08/02 10:47:36;;;;;;;3.37;1.77;;;;;;;;;;5114467;28;20442;-73
2021/08/02 10:50:04;;;;;;;1.93;1.70;;;;;;;;;;5114477;28;20431;-73
2021/08/02 10:52:32;;;;;;;5.93;2.00;;;;;;;;;;5114142;28;20452;-76
2021/08/02 10:54:59;;;;;;;3.43;1.80;;;;;;;;;;5114779;28;20440;-73
2021/08/02 10:57:27;;;;;;;1.90;1.70;;;;;;;;;;5114670;28;20448;-75
2021/08/02 10:59:54;;;;;;;3.30;1.90;;;;;;;;;;5113992;28;20523;-73
2021/08/02 11:02:22;;;;;;;3.00;1.50;;;;;;;;;;5113937;28;20446;-76
2021/08/02 11:04:54;;;;;;;3.00;1.83;;;;;;;;;;5114780;28;20480;-74
2021/08/02 11:07:22;;;;;;;4.40;2.20;;;;;;;;;;5113875;28;20921;-74
2021/08/02 11:09:50;;;;;;;7.33;2.63;;;;;;;;;;5113512;28;20490;-74
2021/08/02 11:12:18;;;;;;;5.23;1.73;;;;;;;;;;5114186;28;20453;-74
2021/08/02 11:14:46;;;;;;;2.70;1.67;;;;;;;;;;5114634;28;20536;-75
2021/08/02 11:17:16;;;;;;;15.70;2.77;;;;;;;;;;5114131;28;20463;-75
2021/08/02 11:19:44;;;;;;;4.10;1.67;;;;;;;;;;5113744;28;20977;-78
2021/08/02 11:22:13;;;;;;;6.73;1.53;;;;;;;;;;5113753;28;20440;-73
2021/08/02 11:24:51;;;;;;;2.40;1.83;;;;;;;;;;5113899;28;20485;-77
2021/08/02 11:27:19;;;;;;;4.00;2.10;;;;;;;;;;5113729;28;20567;-70
2021/08/02 11:29:48;;;;;;;4.50;2.03;;;;;;;;;;5114612;28;20763;-75
2021/08/02 11:32:16;;;;;;;5.10;2.00;;;;;;;;;;5114300;28;20437;-74
2021/08/02 11:34:44;;;;;;;5.13;1.90;;;;;;;;;;5113893;28;20447;-74
2021/08/02 11:37:14;;;;;;;1.93;1.60;;;;;;;;;;5113569;28;21025;-74
2021/08/02 11:39:42;;;;;;;5.43;1.87;;;;;;;;;;5114093;28;20429;-75
2021/08/02 11:42:10;;;;;;;3.13;2.10;;;;;;;;;;5113863;28;20448;-73
2021/08/02 11:44:39;;;;;;;6.63;1.77;;;;;;;;;;5113469;28;20934;-73
2021/08/02 11:47:08;;;;;;;4.63;2.00;;;;;;;;;;5113807;28;20453;-73
2021/08/02 11:49:35;;;;;;;5.87;1.80;;;;;;;;;;5113749;28;20445;-73
2021/08/02 11:52:03;;;;;;;7.70;1.77;;;;;;;;;;5113736;28;20548;-77
2021/08/02 11:54:32;;;;;;;3.53;1.80;;;;;;;;;;5114393;28;20463;-75
2021/08/02 11:56:59;;;;;;;6.27;2.10;;;;;;;;;;5114307;28;20463;-77
2021/08/02 11:59:27;;;;;;;4.70;2.00;;;;;;;;;;5114100;28;20450;-74
2021/08/02 12:01:56;;;;;;;3.00;1.90;;;;;;;;;;5113717;28;20444;-75
2021/08/02 12:04:24;;;;;;;1.83;1.40;;;;;;;;;;5114093;28;20441;-76
2021/08/02 12:06:52;;;;;;;2.30;2.10;;;;;;;;;;5113781;28;20439;-73
2021/08/02 12:09:29;;;;;;;2.73;1.90;;;;;;;;;;5113856;28;20539;-75
2021/08/02 12:11:58;;;;;;;2.60;1.80;;;;;;;;;;5113932;28;20447;-72
2021/08/02 12:14:30;;;;;;;6.03;2.63;;;;;;;;;;5113739;28;20445;-72
2021/08/02 12:17:08;;;;;;;4.50;2.10;;;;;;;;;;5113755;28;20473;-74
2021/08/02 12:19:49;;;;;;;4.27;2.07;;;;;;;;;;5113726;28;20448;-76
2021/08/02 12:22:16;;;;;;;3.70;2.10;;;;;;;;;;5116348;28;20441;-74
2021/08/02 12:24:50;;;;;;;3.17;1.77;;;;;;;;;;5116935;28;20441;-73
2021/08/02 12:27:22;;;;;;;2.77;1.87;;;;;;;;;;5116814;28;20470;-74
2021/08/02 12:30:09;;;;;;;1.93;1.77;;;;;;;;;;5117971;28;20882;-74
2021/08/02 12:32:39;;;;;;;4.30;1.80;;;;;;;;;;5116613;28;20433;-74
2021/08/02 12:35:08;;;;;;;2.50;1.30;;;;;;;;;;5117828;28;20457;-73
2021/08/02 12:37:36;;;;;;;4.33;2.03;;;;;;;;;;5117296;28;20437;-73
2021/08/02 12:40:07;;;;;;;1.83;1.70;;;;;;;;;;5117221;28;20774;-76
2021/08/02 12:42:45;;;;;;;3.50;2.00;;;;;;;;;;5116779;28;20524;-74
2021/08/02 12:45:14;;;;;;;1.77;1.67;;;;;;;;;;5116812;28;20837;-77
2021/08/02 12:47:43;;;;;;;2.13;1.60;;;;;;;;;;5117615;28;20465;-76
2021/08/02 12:50:11;;;;;;;3.30;1.60;;;;;;;;;;5116635;28;20517;-76
2021/08/02 12:52:38;;;;;;;2.23;1.77;;;;;;;;;;5117290;28;20482;-76
2021/08/02 12:55:07;;;;;;;2.77;2.10;;;;;;;;;;5117890;28;20489;-76
2021/08/02 12:57:38;;;;;;;6.00;1.83;;;;;;;;;;5116617;28;20548;-76
2021/08/02 13:00:07;;;;;;;7.70;2.70;;;;;;;;;;5115314;28;20482;-76
2021/08/02 13:02:34;;;;;;;4.37;2.03;;;;;;;;;;5106960;28;20447;-77
2021/08/02 13:05:02;;;;;;;3.80;2.07;;;;;;;;;;5116096;28;21003;-76
2021/08/02 13:07:29;;;;;;;5.20;1.70;;;;;;;;;;5116060;28;20487;-77
2021/08/02 13:09:57;;;;;;;2.53;1.67;;;;;;;;;;5116317;28;20444;-76
2021/08/02 13:12:24;;;;;;;3.47;1.70;;;;;;;;;;5116324;28;20824;-76
2021/08/02 13:14:52;;;;;;;3.80;1.83;;;;;;;;;;5115924;28;20530;-76
2021/08/02 13:17:21;;;;;;;2.00;1.63;;;;;;;;;;5116156;28;20528;-75
2021/08/02 13:19:48;;;;;;;2.20;2.00;;;;;;;;;;5116163;28;20521;-76
2021/08/02 13:22:19;;;;;;;2.40;1.50;;;;;;;;;;5116244;28;20446;-77
2021/08/02 13:27:31;;;;;;;2.70;1.80;;;;;;;;;;5116132;28;20476;-77
2021/08/02 13:29:58;;;;;;;2.50;1.80;;;;;;;;;;5116201;28;20423;-77
2021/08/02 13:32:27;;;;;;;5.67;2.03;;;;;;;;;;5115558;28;20442;-77
2021/08/02 13:34:54;;;;;;;2.10;1.90;;;;;;;;;;5116126;28;20491;-79
2021/08/02 13:37:22;;;;;;;2.30;2.10;;;;;;;;;;5115532;28;20930;-76
2021/08/02 13:39:49;;;;;;;3.73;2.07;;;;;;;;;;5115438;28;20499;-75
2021/08/02 13:42:16;;;;;;;2.07;1.57;;;;;;;;;;5115394;28;20448;-76
2021/08/02 13:44:44;;;;;;;1.67;1.57;;;;;;;;;;5115939;28;20437;-78
2021/08/02 13:47:14;;;;;;;2.30;1.80;;;;;;;;;;5115997;28;20478;-76
2021/08/02 13:49:43;;;;;;;1.70;1.60;;;;;;;;;;5115284;28;20422;-76
2021/08/02 13:52:10;;;;;;;2.20;1.70;;;;;;;;;;5107836;28;20457;-78
2021/08/02 13:54:37;;;;;;;2.13;1.60;;;;;;;;;;5095587;28;20435;-78
2021/08/02 13:57:05;;;;;;;4.03;1.63;;;;;;;;;;5108227;28;20482;-79
2021/08/02 13:59:32;;;;;;;3.33;2.30;;;;;;;;;;5115164;28;20927;-77
2021/08/02 14:01:59;;;;;;;3.87;1.77;;;;;;;;;;5115191;28;21009;-79
2021/08/02 14:04:26;;;;;;;3.47;1.90;;;;;;;;;;5115391;27;20462;-78
2021/08/02 14:06:55;;;;;;;3.10;1.63;;;;;;;;;;5115293;28;20527;-79
2021/08/02 14:09:22;;;;;;;2.97;2.17;;;;;;;;;;5115296;28;20536;-78
2021/08/02 14:11:51;;;;;;;3.60;2.20;;;;;;;;;;5115486;28;20520;-76
2021/08/02 14:14:18;;;;;;;2.63;1.80;;;;;;;;;;5114975;28;20431;-78
2021/08/02 14:16:54;;;;;;;3.50;2.00;;;;;;;;;;5114986;27;20438;-77
2021/08/02 14:19:23;;;;;;;1.83;1.70;;;;;;;;;;5114937;28;20523;-77
2021/08/02 14:21:50;;;;;;;2.70;1.80;;;;;;;;;;5114895;28;20529;-78
2021/08/02 14:24:19;;;;;;;2.20;1.60;;;;;;;;;;5114768;27;20468;-78
2021/08/02 14:26:46;;;;;;;2.40;2.20;;;;;;;;;;5114865;28;20798;-76
2021/08/02 14:29:15;;;;;;;3.10;1.93;;;;;;;;;;5114954;28;20496;-76
2021/08/02 14:31:42;;;;;;;2.97;1.83;;;;;;;;;;5114774;28;20449;-76
2021/08/02 14:34:12;;;;;;;4.40;1.90;;;;;;;;;;5114353;28;20444;-79
2021/08/02 14:36:42;;;;;;;3.03;2.00;;;;;;;;;;5114818;28;20832;-77
2021/08/02 14:39:09;;;;;;;1.97;1.87;;;;;;;;;;5114599;28;20979;-78
2021/08/02 14:41:39;;;;;;;1.80;1.70;;;;;;;;;;5114276;28;20959;-77
2021/08/02 14:44:07;;;;;;;3.73;2.13;;;;;;;;;;5113673;28;20443;-76
2021/08/02 14:46:36;;;;;;;3.00;1.60;;;;;;;;;;5114064;28;20477;-77
2021/08/02 14:49:04;;;;;;;3.90;2.20;;;;;;;;;;5114647;28;20471;-77
2021/08/02 14:51:34;;;;;;;3.07;2.00;;;;;;;;;;5114008;28;20519;-77